Time;durP1;ratioP1;P1;durP2;ratioP2;P2;SDS_P1;SDS_P2;PMS_P1;PMS_P2;Temp;Humidity;BMP_temperature;BMP_pressure;BME280_temperature;BME280_humidity;BME280_pressure;Samples;Min_cycle;Max_cycle;Signal;HPM_P1;HPM_P2
2021/03/18 00:00:55;;;;;;;2.90;2.60;;;;;;;5.36;59.79;98669.47;5074220;28;20032;-77
2021/03/18 00:03:32;;;;;;;2.80;2.60;;;;;;;6.16;59.18;98760.34;5074877;28;20016;-77
2021/03/18 00:05:59;;;;;;;3.67;3.20;;;;;;;6.20;59.02;98778.19;5074468;28;20439;-77
2021/03/18 00:08:25;;;;;;;2.83;2.63;;;;;;;6.23;58.88;98785.72;5056695;28;20076;-77
2021/03/18 00:10:52;;;;;;;3.30;3.00;;;;;;;6.02;59.23;98769.75;5056747;28;20047;-76
2021/03/18 00:13:19;;;;;;;3.30;3.00;;;;;;;6.18;59.17;98784.59;5074697;28;20102;-77
2021/03/18 00:15:45;;;;;;;3.50;3.13;;;;;;;5.95;58.95;98755.69;5058651;28;20051;-77
2021/03/18 00:18:16;;;;;;;3.50;3.20;;;;;;;5.73;59.10;98733.56;5074987;28;20028;-76
2021/03/18 00:20:41;;;;;;;4.07;3.33;;;;;;;6.14;59.17;98780.69;5074596;28;20060;-77
2021/03/18 00:23:07;;;;;;;3.93;3.53;;;;;;;6.11;59.02;98776.59;5074433;28;20079;-77
2021/03/18 00:25:33;;;;;;;3.67;3.00;;;;;;;6.17;58.56;98781.16;5056876;28;20024;-77
2021/03/18 00:27:59;;;;;;;4.50;4.10;;;;;;;6.26;58.99;98792.44;5056638;28;20337;-76
2021/03/18 00:30:25;;;;;;;3.30;3.00;;;;;;;5.86;58.67;98717.31;5074409;28;20028;-76
2021/03/18 00:32:51;;;;;;;3.17;2.90;;;;;;;6.21;58.66;98776.41;5056446;28;20496;-77
2021/03/18 00:35:18;;;;;;;3.60;3.30;;;;;;;6.22;58.77;98784.09;5074194;28;20032;-75
2021/03/18 00:37:47;;;;;;;3.43;3.13;;;;;;;6.23;58.40;98775.25;5074980;28;20038;-77
2021/03/18 00:40:28;;;;;;;3.67;3.30;;;;;;;6.26;58.60;98781.94;5076101;28;20473;-76
2021/03/18 00:42:59;;;;;;;3.90;3.50;;;;;;;6.34;58.19;98795.84;5074282;28;20025;-76
2021/03/18 00:45:27;;;;;;;3.40;3.10;;;;;;;6.07;58.08;98749.09;5074304;28;20090;-75
2021/03/18 00:47:53;;;;;;;3.80;3.30;;;;;;;6.32;58.30;98783.91;5074098;28;20108;-76
2021/03/18 00:50:20;;;;;;;4.40;3.97;;;;;;;6.51;57.84;98801.84;5074133;28;20025;-78
2021/03/18 00:52:45;;;;;;;3.53;3.23;;;;;;;6.40;58.12;98798.78;5074197;28;20024;-79
2021/03/18 00:55:11;;;;;;;4.17;3.70;;;;;;;6.32;58.25;98803.06;5073983;28;20086;-77
2021/03/18 00:57:37;;;;;;;5.07;3.47;;;;;;;6.02;58.10;98754.84;5074139;28;20028;-77
2021/03/18 01:00:13;;;;;;;6.23;5.13;;;;;;;5.88;58.43;98734.50;5073982;28;20438;-75
2021/03/18 01:02:38;;;;;;;4.30;3.47;;;;;;;5.79;58.59;98745.16;5056163;28;20128;-77
2021/03/18 01:05:11;;;;;;;3.50;3.20;;;;;;;6.26;57.92;98801.13;5056254;28;20443;-79
2021/03/18 01:07:38;;;;;;;4.33;3.63;;;;;;;6.33;57.78;98802.06;5056142;28;20451;-77
2021/03/18 01:10:09;;;;;;;3.80;3.40;;;;;;;6.29;58.24;98792.91;5073951;28;20109;-76
2021/03/18 01:12:35;;;;;;;4.10;3.30;;;;;;;6.02;57.91;98756.63;5074840;28;20020;-77
2021/03/18 01:15:00;;;;;;;4.93;3.43;;;;;;;6.07;57.98;98764.00;5077457;28;20379;-80
2021/03/18 01:17:26;;;;;;;3.97;3.57;;;;;;;6.33;58.15;98796.84;5077557;28;20024;-77
2021/03/18 01:19:51;;;;;;;4.77;3.40;;;;;;;6.41;57.42;98792.53;5077474;28;20025;-78
2021/03/18 01:22:17;;;;;;;3.90;3.50;;;;;;;6.16;57.38;98771.66;5078554;28;20660;-76
2021/03/18 01:24:42;;;;;;;3.80;3.50;;;;;;;6.23;57.86;98777.03;5077878;28;20035;-77
2021/03/18 01:27:08;;;;;;;5.30;3.77;;;;;;;5.86;58.27;98735.66;5077459;28;20040;-77
2021/03/18 01:29:33;;;;;;;4.30;3.90;;;;;;;6.30;57.72;98789.31;5077580;28;20032;-78
2021/03/18 01:31:59;;;;;;;4.93;3.50;;;;;;;5.95;57.53;98734.72;5077179;28;20100;-77
2021/03/18 01:34:24;;;;;;;3.83;3.53;;;;;;;5.99;58.13;98749.94;5077238;28;20020;-76
2021/03/18 01:36:50;;;;;;;4.30;3.33;;;;;;;6.36;58.20;98803.53;5077283;28;20091;-76
2021/03/18 01:39:15;;;;;;;4.20;3.57;;;;;;;6.05;57.99;98748.44;5077068;28;20023;-77
2021/03/18 01:41:40;;;;;;;4.10;3.70;;;;;;;6.28;57.80;98801.78;5059562;28;20025;-78
2021/03/18 01:44:06;;;;;;;4.10;3.50;;;;;;;6.11;57.73;98770.53;5077090;28;20470;-77
2021/03/18 01:46:33;;;;;;;4.13;3.70;;;;;;;6.37;57.77;98803.38;5077015;28;20027;-76
2021/03/18 01:48:59;;;;;;;4.13;3.73;;;;;;;6.41;57.83;98805.66;5076792;28;20058;-78
2021/03/18 01:51:25;;;;;;;4.07;3.67;;;;;;;6.36;57.75;98820.09;5059300;28;20021;-79
2021/03/18 01:53:50;;;;;;;4.10;3.70;;;;;;;6.31;57.68;98816.34;5077016;28;20024;-78
2021/03/18 01:56:16;;;;;;;5.03;4.53;;;;;;;6.42;57.46;98817.78;5076780;28;20086;-78
2021/03/18 01:58:45;;;;;;;4.47;3.90;;;;;;;6.38;57.95;98814.69;5076887;28;20036;-78
2021/03/18 02:01:15;;;;;;;4.60;4.20;;;;;;;6.45;57.45;98818.25;5058837;28;20107;-77
2021/03/18 02:03:40;;;;;;;3.90;3.50;;;;;;;6.48;57.71;98831.03;5058875;28;20423;-77
2021/03/18 02:06:06;;;;;;;4.13;3.73;;;;;;;6.06;57.69;98763.19;5076575;28;20032;-77
2021/03/18 02:08:33;;;;;;;4.00;3.60;;;;;;;6.46;57.88;98838.25;5078089;28;20074;-76
2021/03/18 02:10:59;;;;;;;4.50;3.87;;;;;;;6.24;57.85;98810.13;5078421;28;20149;-77
2021/03/18 02:13:25;;;;;;;3.97;3.60;;;;;;;5.97;57.36;98767.63;5058823;28;20528;-77
2021/03/18 02:16:01;;;;;;;4.60;4.20;;;;;;;6.32;57.40;98817.97;5076579;28;20031;-77
2021/03/18 02:18:48;;;;;;;6.03;3.73;;;;;;;6.60;57.31;98855.09;5058751;28;20407;-77
2021/03/18 02:21:51;;;;;;;4.23;3.83;;;;;;;6.48;57.78;98853.81;5076243;28;20396;-79
2021/03/18 02:24:24;;;;;;;4.93;4.00;;;;;;;6.31;57.80;98847.81;5058141;28;20062;-77
2021/03/18 02:27:24;;;;;;;4.37;3.97;;;;;;;5.97;57.92;98785.16;5076219;28;20430;-76
2021/03/18 02:30:27;;;;;;;4.40;4.00;;;;;;;6.38;58.05;98861.88;5076276;28;20047;-76
2021/03/18 02:33:06;;;;;;;;;;;;;;;6.30;58.22;98865.34;5076627;28;20031;-78
2021/03/18 02:35:58;;;;;;;4.60;4.17;;;;;;;6.33;57.87;98865.00;5076215;28;19935;-79
2021/03/18 02:38:26;;;;;;;5.10;4.00;;;;;;;6.41;57.68;98866.78;5076174;28;20028;-77
2021/03/18 02:40:57;;;;;;;5.30;4.70;;;;;;;6.43;57.80;98874.47;5076104;28;20107;-77
2021/03/18 02:43:23;;;;;;;5.13;4.60;;;;;;;6.45;57.66;98872.50;5058126;28;20099;-77
2021/03/18 02:45:54;;;;;;;5.17;4.70;;;;;;;6.43;57.68;98869.22;5058129;28;20066;-77
2021/03/18 02:48:26;;;;;;;6.03;4.60;;;;;;;6.01;57.56;98810.84;5075989;28;20030;-76
2021/03/18 02:50:53;;;;;;;4.90;4.50;;;;;;;6.03;57.64;98808.06;5075766;28;20031;-77
2021/03/18 02:53:20;;;;;;;5.13;4.63;;;;;;;6.19;57.50;98831.59;5075614;28;20032;-79
2021/03/18 02:55:47;;;;;;;22.07;12.40;;;;;;;5.98;57.68;98812.97;5075644;28;20103;-77
2021/03/18 02:58:17;;;;;;;5.73;5.07;;;;;;;5.99;57.35;98815.44;5057687;28;20339;-79
2021/03/18 03:00:44;;;;;;;5.63;5.03;;;;;;;6.11;56.97;98818.53;5075656;28;20028;-77
2021/03/18 03:03:10;;;;;;;5.83;5.10;;;;;;;6.52;57.30;98871.66;5075378;28;20426;-78
2021/03/18 03:05:36;;;;;;;5.67;5.07;;;;;;;6.43;57.45;98869.22;5075649;28;20031;-77
2021/03/18 03:08:05;;;;;;;6.20;5.60;;;;;;;6.52;56.89;98882.16;5075716;28;20051;-77
2021/03/18 03:10:31;;;;;;;6.33;5.63;;;;;;;6.52;56.75;98883.97;5075980;28;20028;-77
2021/03/18 03:12:57;;;;;;;5.70;5.17;;;;;;;6.60;56.53;98884.75;5075763;28;20085;-77
2021/03/18 03:15:25;;;;;;;6.07;5.50;;;;;;;6.20;56.50;98814.91;5078403;28;20028;-77
2021/03/18 03:17:50;;;;;;;5.70;5.20;;;;;;;6.62;56.27;98876.72;5078319;28;20343;-77
2021/03/18 03:20:18;;;;;;;5.77;5.27;;;;;;;6.53;56.36;98859.38;5075647;28;20020;-77
2021/03/18 03:22:45;;;;;;;5.70;5.10;;;;;;;6.40;56.64;98864.31;5057586;28;20025;-77
2021/03/18 03:25:13;;;;;;;5.90;5.07;;;;;;;6.63;56.47;98873.91;5057386;28;20127;-77
2021/03/18 03:27:41;;;;;;;6.10;5.50;;;;;;;6.73;56.09;98904.41;5074980;28;20021;-77
2021/03/18 03:30:10;;;;;;;5.90;5.20;;;;;;;6.31;55.99;98819.78;5075037;28;20030;-77
2021/03/18 03:32:35;;;;;;;6.07;5.47;;;;;;;6.28;56.12;98841.09;5075092;28;20091;-77
2021/03/18 03:35:02;;;;;;;5.67;5.10;;;;;;;6.67;55.85;98884.91;5056464;28;20449;-76
2021/03/18 03:37:28;;;;;;;5.97;5.37;;;;;;;6.37;55.65;98847.94;5075020;28;20025;-75
2021/03/18 03:39:53;;;;;;;5.97;5.07;;;;;;;6.68;56.00;98903.09;5074990;28;20031;-76
2021/03/18 03:42:20;;;;;;;5.93;4.97;;;;;;;6.69;55.89;98903.94;5074886;28;20036;-77
2021/03/18 03:44:45;;;;;;;5.50;5.00;;;;;;;6.57;55.67;98876.41;5074876;28;20051;-77
2021/03/18 03:47:11;;;;;;;7.07;6.23;;;;;;;6.50;56.19;98875.44;5074757;28;20399;-76
2021/03/18 03:49:38;;;;;;;5.97;5.30;;;;;;;6.75;55.74;98908.50;5057202;28;20461;-78
2021/03/18 03:52:23;;;;;;;7.77;6.60;;;;;;;6.75;55.35;98908.50;5056884;28;20059;-76
2021/03/18 03:55:01;;;;;;;6.30;5.70;;;;;;;6.71;55.49;98903.78;5074609;28;20052;-77
2021/03/18 03:57:52;;;;;;;6.80;6.10;;;;;;;6.48;55.83;98864.31;5074913;28;20029;-76
2021/03/18 04:00:18;;;;;;;6.30;5.70;;;;;;;6.58;55.58;98896.41;5074598;28;20032;-76
2021/03/18 04:02:46;;;;;;;7.60;6.20;;;;;;;6.27;55.83;98844.69;5074674;28;20097;-76
2021/03/18 04:05:13;;;;;;;7.60;6.30;;;;;;;6.23;55.57;98856.50;5074577;28;20020;-76
2021/03/18 04:07:40;;;;;;;7.50;6.20;;;;;;;6.67;55.79;98917.19;5074357;28;20059;-76
2021/03/18 04:10:08;;;;;;;6.33;5.73;;;;;;;6.40;55.30;98865.16;5074752;28;20032;-75
2021/03/18 04:12:37;;;;;;;7.50;5.87;;;;;;;6.56;55.71;98916.72;5074522;28;20439;-77
2021/03/18 04:15:08;;;;;;;7.43;6.20;;;;;;;6.68;55.64;98933.75;5074493;28;20021;-77
2021/03/18 04:17:36;;;;;;;6.53;5.70;;;;;;;6.57;55.34;98908.69;5074634;28;20085;-76
2021/03/18 04:20:05;;;;;;;11.87;8.47;;;;;;;6.50;56.00;98941.00;5056555;28;20419;-78
2021/03/18 04:22:32;;;;;;;8.03;6.83;;;;;;;6.57;55.34;98932.28;5056701;28;20438;-76
2021/03/18 04:24:59;;;;;;;6.83;6.10;;;;;;;6.49;55.55;98936.75;5056893;28;20032;-76
2021/03/18 04:27:27;;;;;;;7.47;6.47;;;;;;;6.65;55.84;98947.19;5074530;28;20044;-77
2021/03/18 04:29:55;;;;;;;6.90;5.80;;;;;;;6.64;55.68;98943.75;5074632;28;20028;-75
2021/03/18 04:32:22;;;;;;;7.10;5.83;;;;;;;6.31;56.61;98906.28;5074423;28;20020;-76
2021/03/18 04:34:50;;;;;;;6.70;5.67;;;;;;;6.21;56.64;98895.16;5056504;28;20029;-76
2021/03/18 04:37:15;;;;;;;8.17;6.47;;;;;;;6.32;56.18;98900.06;5074235;28;20051;-77
2021/03/18 04:39:42;;;;;;;6.67;5.90;;;;;;;6.58;56.38;98948.84;5074319;28;20028;-76
2021/03/18 04:42:08;;;;;;;6.87;6.13;;;;;;;6.59;56.59;98950.50;5074164;28;20450;-77
2021/03/18 04:44:35;;;;;;;7.20;6.50;;;;;;;6.57;56.24;98948.03;5056444;28;20016;-77
2021/03/18 04:47:01;;;;;;;8.17;6.67;;;;;;;6.63;57.06;98957.84;5075866;28;20058;-76
2021/03/18 04:49:27;;;;;;;9.43;8.43;;;;;;;6.66;56.65;98957.53;5060318;28;20028;-76
2021/03/18 04:51:54;;;;;;;8.77;7.87;;;;;;;6.20;56.34;98869.13;5078076;28;20064;-76
2021/03/18 04:54:19;;;;;;;8.10;7.30;;;;;;;6.75;56.13;98965.41;5077743;28;20399;-78
2021/03/18 04:56:47;;;;;;;8.07;6.90;;;;;;;6.70;56.39;98965.91;5077991;28;20028;-76
2021/03/18 04:59:15;;;;;;;8.20;7.40;;;;;;;6.47;56.60;98938.72;5077799;28;20102;-76
2021/03/18 05:01:52;;;;;;;9.40;7.50;;;;;;;6.49;56.41;98942.81;5077969;28;20411;-77
2021/03/18 05:04:19;;;;;;;11.27;8.00;;;;;;;6.53;56.61;98964.28;5059902;28;20033;-76
2021/03/18 05:06:53;;;;;;;9.83;7.73;;;;;;;6.76;56.52;98970.47;5077700;28;20157;-78
2021/03/18 05:09:21;;;;;;;10.20;8.00;;;;;;;6.61;56.56;98949.34;5077640;28;20030;-76
2021/03/18 05:11:47;;;;;;;10.13;8.50;;;;;;;6.27;56.48;98912.84;5077694;28;20020;-78
2021/03/18 05:14:13;;;;;;;10.20;8.03;;;;;;;6.72;56.90;98965.75;5077491;28;20081;-77
2021/03/18 05:16:39;;;;;;;10.57;9.00;;;;;;;6.83;56.62;98978.50;5077615;28;20036;-77
2021/03/18 05:19:10;;;;;;;13.63;10.33;;;;;;;6.89;56.44;98983.09;5077431;28;20036;-78
2021/03/18 05:21:38;;;;;;;13.67;9.53;;;;;;;6.76;56.43;98972.28;5077702;28;20036;-76
2021/03/18 05:24:08;;;;;;;13.00;10.37;;;;;;;6.89;56.31;98996.19;5077376;28;20028;-77
2021/03/18 05:26:34;;;;;;;12.30;9.17;;;;;;;6.90;56.73;98997.84;5077539;28;20032;-77
2021/03/18 05:29:00;;;;;;;9.77;8.07;;;;;;;6.85;56.21;98973.91;5077304;28;20032;-77
2021/03/18 05:31:25;;;;;;;10.73;8.73;;;;;;;6.98;55.87;98976.81;5079667;28;20111;-76
2021/03/18 05:33:51;;;;;;;10.00;8.07;;;;;;;7.18;55.37;98988.56;5077437;28;20029;-76
2021/03/18 05:36:18;;;;;;;10.07;8.57;;;;;;;7.22;55.20;98997.72;5077218;28;20036;-77
2021/03/18 05:38:43;;;;;;;10.50;8.30;;;;;;;6.59;55.39;98898.84;5077278;28;20035;-77
2021/03/18 05:41:09;;;;;;;10.43;8.63;;;;;;;7.21;55.26;99003.16;5077080;28;20024;-78
2021/03/18 05:43:34;;;;;;;10.57;9.23;;;;;;;7.17;55.05;99007.09;5077137;28;20028;-77
2021/03/18 05:46:01;;;;;;;11.70;9.00;;;;;;;6.98;55.05;98979.44;5059357;28;20056;-76
2021/03/18 05:48:27;;;;;;;10.60;8.73;;;;;;;7.20;55.06;98996.28;5077414;28;20466;-76
2021/03/18 05:50:53;;;;;;;14.60;11.67;;;;;;;6.96;54.76;98977.00;5077127;28;20107;-76
2021/03/18 05:53:22;;;;;;;19.10;12.30;;;;;;;7.09;54.53;98983.50;5058997;28;20032;-76
2021/03/18 05:55:48;;;;;;;15.70;9.97;;;;;;;7.14;54.82;99002.19;5059137;28;20032;-76
2021/03/18 05:58:15;;;;;;;13.03;9.20;;;;;;;7.10;54.89;98969.41;5076145;28;20025;-76
2021/03/18 06:00:41;;;;;;;11.27;8.80;;;;;;;7.46;54.23;99027.53;5076812;28;20089;-77
2021/03/18 06:03:07;;;;;;;11.83;9.00;;;;;;;7.34;54.07;99029.69;5076612;28;20032;-77
2021/03/18 06:05:33;;;;;;;10.50;8.57;;;;;;;7.09;54.26;98981.72;5076613;28;20472;-76
2021/03/18 06:07:58;;;;;;;12.60;9.17;;;;;;;7.40;54.16;99033.44;5058558;28;20382;-76
2021/03/18 06:10:25;;;;;;;10.93;8.65;;;;;;;7.50;53.78;99034.91;5076683;28;20411;-76
2021/03/18 06:12:53;;;;;;;10.13;8.47;;;;;;;7.37;52.90;99003.09;5070071;28;20028;-76
2021/03/18 06:15:20;;;;;;;9.43;8.53;;;;;;;7.49;52.85;99043.78;5038726;28;20420;-77
2021/03/18 06:17:47;;;;;;;11.10;8.30;;;;;;;7.54;52.88;99030.13;5075293;28;20032;-76
2021/03/18 06:20:16;;;;;;;11.30;8.90;;;;;;;7.69;52.86;99053.88;5075639;28;20055;-76
2021/03/18 06:22:45;;;;;;;12.27;9.60;;;;;;;7.73;52.59;99047.28;5075593;28;20032;-76
2021/03/18 06:25:26;;;;;;;9.00;7.72;;;;;;;7.54;52.21;99027.50;5065752;28;20082;-77
2021/03/18 06:28:09;;;;;;;10.43;8.30;;;;;;;7.61;51.15;99042.41;5058643;28;20024;-77
2021/03/18 06:30:36;;;;;;;8.93;7.90;;;;;;;7.12;51.99;98964.78;5075921;28;20457;-76
2021/03/18 06:33:16;;;;;;;9.50;8.30;;;;;;;7.68;51.80;99053.06;5054650;28;20079;-77
2021/03/18 06:35:41;;;;;;;10.82;8.80;;;;;;;6.94;52.16;98938.78;5067209;28;20390;-76
2021/03/18 06:38:07;;;;;;;9.85;8.85;;;;;;;7.75;51.37;99046.13;5050245;28;20036;-76
2021/03/18 06:40:40;;;;;;;10.25;9.02;;;;;;;7.64;50.98;99036.81;5057112;28;20146;-76
2021/03/18 06:43:05;;;;;;;8.98;7.43;;;;;;;7.90;51.20;99059.34;5063921;28;20107;-76
2021/03/18 06:45:34;;;;;;;7.87;7.13;;;;;;;7.80;50.58;99072.72;5075007;28;20482;-76
2021/03/18 06:48:04;;;;;;;12.18;8.07;;;;;;;7.77;50.74;99057.28;5055107;28;20050;-76
2021/03/18 06:50:37;;;;;;;10.85;8.00;;;;;;;8.03;50.89;99079.81;5063802;28;20090;-77
2021/03/18 06:53:23;;;;;;;9.02;7.38;;;;;;;8.02;50.11;99079.00;5074183;28;20435;-76
2021/03/18 06:55:52;;;;;;;11.02;8.25;;;;;;;7.93;51.00;99049.31;5055567;28;20025;-76
2021/03/18 06:58:28;;;;;;;8.68;7.53;;;;;;;8.06;50.33;99054.00;5045197;28;20489;-76
2021/03/18 07:00:59;;;;;;;9.00;7.43;;;;;;;8.27;49.83;99085.78;5075587;28;20063;-76
2021/03/18 07:03:35;;;;;;;9.88;7.72;;;;;;;8.30;50.05;99087.25;5075475;28;20031;-76
2021/03/18 07:06:03;;;;;;;10.18;7.70;;;;;;;8.24;50.45;99080.03;5075333;28;20035;-77
2021/03/18 07:08:38;;;;;;;8.95;7.00;;;;;;;8.34;49.89;99085.09;5071430;28;20430;-77
2021/03/18 07:11:19;;;;;;;9.23;7.97;;;;;;;7.67;49.49;98977.03;5073471;28;20362;-77
2021/03/18 07:13:45;;;;;;;7.80;6.97;;;;;;;8.43;49.93;99094.56;5065554;28;20040;-78
2021/03/18 07:16:12;;;;;;;8.52;6.57;;;;;;;8.42;49.51;99098.19;5067276;28;20603;-80
2021/03/18 07:18:39;;;;;;;8.25;6.43;;;;;;;8.46;48.55;99102.13;5070985;28;20040;-77
2021/03/18 07:21:13;;;;;;;7.47;6.28;;;;;;;8.38;48.30;99113.53;5073629;28;20028;-78
2021/03/18 07:23:47;;;;;;;8.35;5.97;;;;;;;7.99;48.84;99034.66;5057570;28;20448;-78
2021/03/18 07:26:23;;;;;;;9.93;6.53;;;;;;;8.48;47.66;99094.88;5057453;28;20082;-77
2021/03/18 07:29:13;;;;;;;10.00;8.35;;;;;;;8.29;48.54;99057.50;5056027;28;20029;-77
2021/03/18 07:31:42;;;;;;;9.80;7.57;;;;;;;8.56;48.89;99106.16;5073072;28;20031;-77
2021/03/18 07:34:07;;;;;;;13.23;10.55;;;;;;;8.63;48.60;99105.44;5066070;28;20025;-77
2021/03/18 07:36:33;;;;;;;10.23;7.88;;;;;;;8.69;48.52;99099.47;5055068;28;20104;-78
2021/03/18 07:38:59;;;;;;;8.10;7.30;;;;;;;8.83;48.63;99104.78;5070848;28;20029;-77
2021/03/18 07:41:25;;;;;;;13.88;10.82;;;;;;;8.49;48.35;99030.72;5074813;28;20082;-76
2021/03/18 07:43:51;;;;;;;14.52;10.55;;;;;;;8.70;48.16;99080.06;5073892;28;20036;-79
2021/03/18 07:46:22;;;;;;;8.70;7.55;;;;;;;8.08;47.17;98969.69;5072956;28;20092;-76
2021/03/18 07:48:52;;;;;;;12.45;8.63;;;;;;;8.55;47.05;99057.16;5047380;28;20502;-75
2021/03/18 07:51:19;;;;;;;12.18;7.45;;;;;;;8.88;47.43;99112.97;5059523;28;20083;-76
2021/03/18 07:53:49;;;;;;;10.00;7.10;;;;;;;8.24;47.52;98990.63;5070577;28;20041;-76
2021/03/18 07:56:15;;;;;;;12.55;8.18;;;;;;;9.05;47.39;99112.84;5072682;28;20040;-75
2021/03/18 07:58:46;;;;;;;13.88;8.32;;;;;;;8.66;46.03;99047.19;5072591;28;20044;-75
2021/03/18 08:01:30;;;;;;;14.40;8.75;;;;;;;9.13;46.58;99091.72;5056297;28;20039;-75
2021/03/18 08:04:06;;;;;;;12.57;8.25;;;;;;;9.18;46.39;99118.31;5072343;28;20028;-75
2021/03/18 08:06:41;;;;;;;13.48;8.23;;;;;;;9.20;45.82;99122.41;5055390;28;20035;-76
2021/03/18 08:09:16;;;;;;;9.93;6.95;;;;;;;8.97;46.17;99076.88;5055500;28;20036;-76
2021/03/18 08:11:45;;;;;;;8.57;6.82;;;;;;;9.05;45.46;99100.50;5073543;28;20065;-75
2021/03/18 08:14:12;;;;;;;8.65;6.45;;;;;;;8.86;46.16;99051.78;5056323;28;20020;-74
2021/03/18 08:16:38;;;;;;;7.00;6.30;;;;;;;9.07;46.08;99056.38;5063826;28;20031;-76
2021/03/18 08:19:06;;;;;;;8.13;7.03;;;;;;;9.46;45.29;99122.00;5073237;28;20339;-76
2021/03/18 08:21:33;;;;;;;8.32;6.68;;;;;;;9.08;44.86;99033.50;5072011;28;20089;-75
2021/03/18 08:23:59;;;;;;;6.90;6.20;;;;;;;9.59;45.04;99120.53;5078465;28;20043;-75
2021/03/18 08:26:46;;;;;;;9.27;6.47;;;;;;;9.48;44.87;99119.16;5043432;28;20021;-75
2021/03/18 08:29:18;;;;;;;10.50;6.60;;;;;;;9.37;45.17;99094.09;5044669;28;20119;-75
2021/03/18 08:32:02;;;;;;;10.57;6.65;;;;;;;9.29;44.76;99082.81;5077330;28;20328;-75
2021/03/18 08:34:46;;;;;;;7.43;5.47;;;;;;;9.60;44.74;99116.91;5075383;28;20435;-78
2021/03/18 08:37:13;;;;;;;6.93;6.00;;;;;;;9.51;44.67;99124.91;5067907;28;20040;-81
2021/03/18 08:39:50;;;;;;;7.82;6.07;;;;;;;9.48;44.00;99119.16;5058379;28;20036;-77
2021/03/18 08:42:27;;;;;;;11.55;6.97;;;;;;;9.61;44.94;99123.81;5069761;28;20439;-76
2021/03/18 08:44:53;;;;;;;9.80;6.18;;;;;;;9.49;44.92;99119.00;5061356;28;20032;-75
2021/03/18 08:47:18;;;;;;;7.10;6.25;;;;;;;9.37;45.23;99106.44;5051382;28;20096;-75
2021/03/18 08:49:45;;;;;;;9.13;6.70;;;;;;;9.62;44.87;99123.63;5069832;28;20036;-74
2021/03/18 08:52:19;;;;;;;12.43;7.57;;;;;;;9.46;44.75;99081.66;5057506;28;20092;-75
2021/03/18 08:54:49;;;;;;;8.32;7.03;;;;;;;9.85;44.86;99123.56;5101496;22;20052;-76
2021/03/18 08:57:20;;;;;;;11.20;6.80;;;;;;;9.95;44.13;99116.16;5111229;28;20442;-75
2021/03/18 08:59:51;;;;;;;9.55;7.00;;;;;;;9.76;44.42;99099.09;5098952;28;20032;-76
2021/03/18 09:02:20;;;;;;;7.50;6.72;;;;;;;10.03;44.18;99131.88;5115675;28;20032;-76
2021/03/18 09:04:50;;;;;;;8.60;6.68;;;;;;;9.60;43.16;99051.81;5095349;28;20386;-76
2021/03/18 09:07:21;;;;;;;9.82;7.45;;;;;;;10.06;43.93;99120.16;5103133;28;20032;-75
2021/03/18 09:09:58;;;;;;;7.43;6.28;;;;;;;9.88;43.08;99094.19;5087628;28;20061;-76
2021/03/18 09:12:24;;;;;;;10.93;7.82;;;;;;;10.01;43.32;99091.69;5115478;28;20057;-77
2021/03/18 09:14:49;;;;;;;6.55;5.95;;;;;;;9.95;43.20;99055.50;5102711;28;20028;-76
2021/03/18 09:17:15;;;;;;;9.60;7.13;;;;;;;10.26;43.06;99107.22;5117836;28;20039;-77
2021/03/18 09:19:46;;;;;;;8.52;5.55;;;;;;;10.32;41.33;99106.47;5117623;28;20043;-77
2021/03/18 09:22:16;;;;;;;6.25;5.65;;;;;;;10.02;42.49;99055.59;5118073;28;20030;-76
2021/03/18 09:24:45;;;;;;;5.50;4.97;;;;;;;10.38;41.56;99116.28;5116399;28;20033;-76
2021/03/18 09:27:13;;;;;;;6.95;5.20;;;;;;;10.47;41.89;99123.09;5117813;28;20044;-76
2021/03/18 09:29:40;;;;;;;7.50;5.63;;;;;;;10.34;41.81;99094.72;5079926;28;20115;-75
2021/03/18 09:32:08;;;;;;;5.35;4.32;;;;;;;10.49;41.29;99135.09;5110272;28;20027;-77
2021/03/18 09:34:45;;;;;;;4.93;4.28;;;;;;;10.63;40.90;99119.41;5090787;28;20039;-75
2021/03/18 09:37:12;;;;;;;8.10;6.25;;;;;;;10.53;40.71;99132.91;5097212;28;20357;-76
2021/03/18 09:39:46;;;;;;;5.93;5.03;;;;;;;10.31;40.42;99097.75;5097174;28;20024;-75
2021/03/18 09:42:15;;;;;;;6.28;4.30;;;;;;;10.58;40.56;99129.72;5098073;28;20434;-75
2021/03/18 09:44:42;;;;;;;6.40;5.20;;;;;;;10.47;40.50;99096.72;5108557;28;20027;-76
2021/03/18 09:47:09;;;;;;;7.20;5.82;;;;;;;10.33;40.33;99061.44;5116898;28;20144;-76
2021/03/18 09:49:40;;;;;;;6.00;5.13;;;;;;;10.73;39.88;99101.41;5110154;28;20103;-75
2021/03/18 09:52:11;;;;;;;5.05;4.55;;;;;;;10.81;39.82;99094.19;5078856;28;20392;-75
2021/03/18 09:54:37;;;;;;;6.07;5.03;;;;;;;10.86;39.54;99058.47;5075464;28;20051;-76
2021/03/18 09:57:08;;;;;;;5.95;4.55;;;;;;;11.41;38.58;99121.88;5076771;28;20024;-78
2021/03/18 09:59:34;;;;;;;4.53;4.07;;;;;;;11.28;38.98;99103.28;5076666;28;20101;-75
2021/03/18 10:02:00;;;;;;;5.75;5.13;;;;;;;11.29;39.12;99106.75;5076090;28;20028;-75
2021/03/18 10:04:26;;;;;;;7.20;5.43;;;;;;;11.49;38.37;99114.81;5090732;28;20024;-76
2021/03/18 10:06:57;;;;;;;5.90;5.18;;;;;;;11.69;37.64;99124.50;5062052;28;20365;-75
2021/03/18 10:09:27;;;;;;;5.45;4.32;;;;;;;11.89;37.75;99123.81;5077585;28;20052;-79
2021/03/18 10:11:57;;;;;;;5.25;4.75;;;;;;;12.00;37.45;99129.38;5075574;28;20448;-76
2021/03/18 10:14:56;;;;;;;6.45;4.65;;;;;;;11.99;37.27;99114.50;5078799;28;20059;-76
2021/03/18 10:17:27;;;;;;;6.75;4.53;;;;;;;11.74;37.16;99089.53;5089386;28;20039;-76
2021/03/18 10:19:54;;;;;;;5.45;4.72;;;;;;;12.00;37.39;99129.38;5094131;28;20119;-79
2021/03/18 10:22:23;;;;;;;5.25;4.72;;;;;;;11.85;37.64;99090.81;5079067;28;20362;-80
2021/03/18 10:25:09;;;;;;;7.60;4.85;;;;;;;12.37;35.93;99106.91;5082955;28;20020;-80
2021/03/18 10:27:44;;;;;;;8.65;5.18;;;;;;;11.97;36.44;99023.13;5089061;28;20373;-80
2021/03/18 10:30:22;;;;;;;6.45;4.90;;;;;;;12.33;35.83;99100.38;5075960;28;20082;-79
2021/03/18 10:33:02;;;;;;;9.18;6.10;;;;;;;12.39;35.97;99114.63;5076507;28;20028;-81
2021/03/18 10:35:33;;;;;;;7.50;4.90;;;;;;;12.39;36.54;99106.69;5075272;28;20029;-81
2021/03/18 10:37:59;;;;;;;7.33;4.30;;;;;;;12.16;37.10;99091.16;5070891;28;20030;-78
2021/03/18 10:40:27;;;;;;;6.82;4.90;;;;;;;11.98;36.57;99059.16;5078295;28;20031;-78
2021/03/18 10:42:57;;;;;;;8.32;5.28;;;;;;;12.02;36.77;99049.81;5094363;28;20448;-80
2021/03/18 10:45:30;;;;;;;4.47;4.07;;;;;;;12.60;35.93;99109.19;5080561;28;20039;-79
2021/03/18 10:48:06;;;;;;;5.95;5.13;;;;;;;12.63;36.19;99106.16;5075418;28;20021;-81
2021/03/18 10:50:36;;;;;;;6.82;5.25;;;;;;;12.21;36.09;99056.97;5093495;28;20040;-81
2021/03/18 10:53:11;;;;;;;4.60;4.20;;;;;;;11.67;35.37;98948.53;5095290;28;20036;-82
2021/03/18 10:55:44;;;;;;;6.78;5.45;;;;;;;12.59;36.26;99038.69;5093485;28;20104;-82
2021/03/18 10:58:15;;;;;;;6.75;4.93;;;;;;;13.09;35.32;99100.06;5095987;28;20032;-83
2021/03/18 11:00:42;;;;;;;4.70;4.25;;;;;;;13.39;33.63;99086.41;5096667;28;20395;-82
2021/03/18 11:03:12;;;;;;;5.05;4.40;;;;;;;13.78;34.51;99094.25;5077959;28;20474;-80
2021/03/18 11:05:46;;;;;;;4.38;3.83;;;;;;;13.39;34.49;99010.31;5096080;28;20032;-79
2021/03/18 11:08:13;;;;;;;5.25;4.00;;;;;;;13.25;34.76;99016.66;5096197;28;20106;-81
2021/03/18 11:10:47;;;;;;;4.90;3.30;;;;;;;12.57;34.72;98945.41;5095125;28;20024;-81
2021/03/18 11:13:19;;;;;;;6.10;3.53;;;;;;;12.82;34.16;98995.09;5077426;28;20345;-83
2021/03/18 11:15:49;;;;;;;3.42;3.13;;;;;;;13.41;33.99;99085.19;5090044;28;20043;-83
2021/03/18 11:18:15;;;;;;;4.45;3.63;;;;;;;13.80;33.88;99089.56;5096789;28;20024;-80
2021/03/18 11:20:43;;;;;;;5.40;3.83;;;;;;;13.51;33.70;99042.31;5097378;28;20107;-80
2021/03/18 11:23:11;;;;;;;4.30;3.50;;;;;;;13.83;33.20;99094.44;5095950;28;20024;-81
2021/03/18 11:25:38;;;;;;;4.85;3.78;;;;;;;13.35;33.18;98990.53;5085636;28;20036;-79
2021/03/18 11:28:03;;;;;;;4.00;3.60;;;;;;;13.48;33.25;99003.78;5075205;28;20066;-79
2021/03/18 11:30:36;;;;;;;4.95;4.18;;;;;;;13.70;32.12;99009.59;5079009;28;20377;-79
2021/03/18 11:33:16;;;;;;;4.95;3.83;;;;;;;14.15;32.14;99074.13;5093377;28;20031;-79
2021/03/18 11:35:52;;;;;;;5.72;3.90;;;;;;;13.84;32.86;98997.88;5077736;28;20062;-78
2021/03/18 11:38:18;;;;;;;5.15;3.63;;;;;;;14.43;32.23;99065.81;5077657;28;20062;-78
2021/03/18 11:40:46;;;;;;;6.68;3.75;;;;;;;14.61;32.24;99065.88;5095066;28;20381;-80
2021/03/18 11:43:12;;;;;;;3.85;3.33;;;;;;;14.47;32.07;99045.75;5094814;28;20027;-79
2021/03/18 11:45:38;;;;;;;5.68;4.05;;;;;;;14.81;31.92;99057.75;5095160;28;20103;-79
2021/03/18 11:48:05;;;;;;;4.53;3.58;;;;;;;14.74;31.62;99050.88;5077167;28;20453;-79
2021/03/18 11:50:31;;;;;;;3.63;3.30;;;;;;;14.91;31.20;99063.44;5095036;28;20023;-80